Terminal Aerodrome Forecast
Issued by NWS

Home | Current Version | Previous Version | Text Only | Print | Product List | Glossary On
Versions: 1 2 3 4 5 6 7 8 9 10 11 12 13
774
FTPA31 PHFO 192225 AAA
TAFHTO
TAF AMD
PHTO 192225Z 1922/2018 12010KT P6SM FEW025 BKN040
      TEMPO 1922/2001 BKN025
     FM200500 24007KT P6SM BKN040=

USA.gov is the U.S. government's official web portal to all federal, state and local government web resources and services.